Time;durP1;ratioP1;P1;durP2;ratioP2;P2;SDS_P1;SDS_P2;PMS_P1;PMS_P2;Temp;Humidity;BMP_temperature;BMP_pressure;BME280_temperature;BME280_humidity;BME280_pressure;Samples;Min_cycle;Max_cycle;Signal;HPM_P1;HPM_P2
2022/04/21 00:00:07;;;;;;;8.60;4.15;;;9.50;99.90;;;;;;5006141;28;20573;-80
2022/04/21 00:02:33;;;;;;;6.28;4.53;;;9.50;99.90;;;;;;5004180;28;20046;-80
2022/04/21 00:04:59;;;;;;;8.20;4.32;;;9.50;99.90;;;;;;4998519;28;20057;-80
2022/04/21 00:07:25;;;;;;;6.40;3.97;;;9.40;99.90;;;;;;5004159;28;20050;-80
2022/04/21 00:09:51;;;;;;;7.05;4.60;;;9.40;99.90;;;;;;5005786;28;20060;-80
2022/04/21 00:12:17;;;;;;;9.45;5.35;;;9.40;99.90;;;;;;5006288;28;20041;-80
2022/04/21 00:14:43;;;;;;;5.63;4.50;;;9.40;99.90;;;;;;5006447;28;20121;-80
2022/04/21 00:17:08;;;;;;;5.85;4.22;;;9.80;99.90;;;;;;5003074;28;20072;-80
2022/04/21 00:19:37;;;;;;;7.63;5.10;;;9.30;99.90;;;;;;5004330;28;20041;-80
2022/04/21 00:24:48;;;;;;;6.38;4.75;;;9.30;99.90;;;;;;5007525;28;20484;-80
2022/04/21 00:27:14;;;;;;;9.77;5.43;;;9.20;99.90;;;;;;5003516;28;20534;-80
2022/04/21 00:29:39;;;;;;;10.75;5.85;;;9.10;99.90;;;;;;4997784;28;20045;-80
2022/04/21 00:32:05;;;;;;;7.18;5.47;;;9.10;99.90;;;;;;5002888;28;20127;-80
2022/04/21 00:34:34;;;;;;;6.82;5.00;;;9.10;99.90;;;;;;5007389;28;20044;-80
2022/04/21 00:37:00;;;;;;;10.10;5.70;;;9.10;99.90;;;;;;5003776;28;20052;-80
2022/04/21 00:39:36;;;;;;;9.10;6.45;;;9.70;99.90;;;;;;5004752;28;20047;-80
2022/04/21 00:42:02;;;;;;;10.25;6.47;;;9.10;99.90;;;;;;5003626;28;20050;-80
2022/04/21 00:44:29;;;;;;;9.68;6.45;;;9.10;99.90;;;;;;4987397;28;20829;-80
2022/04/21 00:46:57;;;;;;;9.07;6.47;;;9.00;99.90;;;;;;4997781;28;21623;-80
2022/04/21 00:49:23;;;;;;;6.07;5.28;;;9.50;99.90;;;;;;5001338;28;20029;-81
2022/04/21 00:51:51;;;;;;;9.93;6.97;;;9.00;99.90;;;;;;5004579;28;20119;-81
2022/04/21 00:54:17;;;;;;;11.13;6.00;;;9.00;99.90;;;;;;5002043;28;20033;-80
2022/04/21 00:56:43;;;;;;;9.23;6.88;;;9.00;99.90;;;;;;5005674;28;20056;-80
2022/04/21 00:59:11;;;;;;;10.73;6.18;;;9.00;99.90;;;;;;5003787;28;20172;-80
2022/04/21 01:04:23;;;;;;;10.35;6.53;;;8.90;99.90;;;;;;5005746;28;20042;-80
2022/04/21 01:06:51;;;;;;;9.35;6.50;;;9.00;99.90;;;;;;5005020;28;20037;-80
2022/04/21 01:09:18;;;;;;;8.80;6.22;;;9.30;99.90;;;;;;4986944;28;20401;-80
2022/04/21 01:11:45;;;;;;;9.70;6.72;;;9.10;99.90;;;;;;5003520;28;20046;-80
2022/04/21 01:14:12;;;;;;;12.18;7.10;;;9.10;99.90;;;;;;5005587;28;20076;-80
2022/04/21 01:16:38;;;;;;;10.65;7.68;;;9.10;99.90;;;;;;5005769;28;20391;-80
2022/04/21 01:19:04;;;;;;;10.30;6.57;;;9.00;99.90;;;;;;5006403;28;20037;-80
2022/04/21 01:21:29;;;;;;;8.13;6.50;;;9.00;99.90;;;;;;5006050;28;20129;-80
2022/04/21 01:23:56;;;;;;;11.30;6.63;;;9.00;99.90;;;;;;5000582;28;20141;-80
2022/04/21 01:26:22;;;;;;;11.20;6.78;;;9.00;99.90;;;;;;5003795;28;20052;-80
2022/04/21 01:28:49;;;;;;;11.85;6.43;;;9.00;99.90;;;;;;5001220;28;20049;-80
2022/04/21 01:31:24;;;;;;;10.32;7.20;;;9.00;99.90;;;;;;5009559;28;20072;-80
2022/04/21 01:33:50;;;;;;;9.63;7.07;;;9.00;99.90;;;;;;5008927;28;20241;-80
2022/04/21 01:36:16;;;;;;;11.30;7.18;;;10.50;99.90;;;;;;4998819;28;20042;-80
2022/04/21 01:41:26;;;;;;;10.18;7.18;;;8.90;99.90;;;;;;5000795;28;20406;-80
2022/04/21 01:43:52;;;;;;;9.45;7.03;;;8.90;99.90;;;;;;5008626;28;20046;-79
2022/04/21 01:46:18;;;;;;;9.23;7.03;;;8.80;99.90;;;;;;4997673;28;20042;-81
2022/04/21 01:48:43;;;;;;;8.55;7.45;;;8.80;99.90;;;;;;5003193;28;20086;-81
2022/04/21 01:51:09;;;;;;;9.50;7.95;;;10.10;99.90;;;;;;5005291;28;20512;-81
2022/04/21 01:53:35;;;;;;;12.75;8.18;;;8.70;99.90;;;;;;4986151;28;20056;-81
2022/04/21 01:56:00;;;;;;;10.80;7.82;;;8.70;99.90;;;;;;5008574;28;20042;-81
2022/04/21 01:58:26;;;;;;;10.75;8.23;;;8.70;99.90;;;;;;4990988;28;20042;-81
2022/04/21 02:00:52;;;;;;;13.20;8.38;;;8.60;99.90;;;;;;5004249;28;20115;-81
2022/04/21 02:03:18;;;;;;;12.23;8.52;;;10.00;99.90;;;;;;5007504;28;20406;-81
2022/04/21 02:05:43;;;;;;;9.80;7.50;;;10.10;99.90;;;;;;5006082;28;20125;-80
2022/04/21 02:08:12;;;;;;;12.30;8.55;;;8.60;99.90;;;;;;5007271;28;20050;-80
2022/04/21 02:10:38;;;;;;;11.48;8.38;;;8.60;99.90;;;;;;4986043;28;20049;-81
2022/04/21 02:13:05;;;;;;;15.27;8.43;;;8.60;99.90;;;;;;5006518;28;20037;-81
2022/04/21 02:15:31;;;;;;;15.55;8.98;;;8.70;99.90;;;;;;5007859;28;20045;-80
2022/04/21 02:17:57;;;;;;;11.95;8.05;;;8.70;99.90;;;;;;5003971;28;20073;-80
2022/04/21 02:20:23;;;;;;;9.90;8.05;;;8.60;99.90;;;;;;4990178;28;21575;-80
2022/04/21 02:22:48;;;;;;;10.40;8.00;;;8.60;99.90;;;;;;4999935;28;20041;-80
2022/04/21 02:25:15;;;;;;;9.60;7.68;;;9.50;99.90;;;;;;4988736;28;20347;-80
2022/04/21 02:27:45;;;;;;;13.27;8.88;;;9.70;99.90;;;;;;5007786;28;20046;-81
2022/04/21 02:30:13;;;;;;;11.77;8.38;;;8.50;99.90;;;;;;5001608;28;20049;-81
2022/04/21 02:32:39;;;;;;;13.15;8.65;;;8.50;99.90;;;;;;5005317;28;20076;-80
2022/04/21 02:35:06;;;;;;;13.45;8.77;;;9.90;99.90;;;;;;5007423;28;20045;-80
2022/04/21 02:37:40;;;;;;;11.88;8.30;;;8.50;99.90;;;;;;5007751;28;20065;-80
2022/04/21 02:40:07;;;;;;;11.93;8.13;;;8.50;99.90;;;;;;5006721;28;20054;-81
2022/04/21 02:42:33;;;;;;;9.63;7.88;;;8.40;99.90;;;;;;5002489;28;20050;-80
2022/04/21 02:45:00;;;;;;;11.73;8.13;;;8.50;99.90;;;;;;5005592;28;20053;-80
2022/04/21 02:47:26;;;;;;;12.57;8.35;;;9.60;99.90;;;;;;5005927;28;20034;-80
2022/04/21 02:49:53;;;;;;;11.73;8.73;;;8.50;99.90;;;;;;4999744;28;20050;-80
2022/04/21 02:52:20;;;;;;;14.48;9.13;;;8.40;99.90;;;;;;5005902;28;20049;-80
2022/04/21 02:57:31;;;;;;;;;;;8.40;99.90;;;;;;5007891;28;20041;-81
2022/04/21 02:59:59;;;;;;;12.13;9.35;;;8.40;99.90;;;;;;5006660;28;20274;-81
2022/04/21 03:02:25;;;;;;;10.75;8.70;;;9.20;99.90;;;;;;5003300;28;20390;-81
2022/04/21 03:04:52;;;;;;;10.63;8.95;;;8.40;99.90;;;;;;4998799;28;20501;-81
2022/04/21 03:07:20;;;;;;;10.88;8.85;;;8.40;99.90;;;;;;5004227;28;20053;-81
2022/04/21 03:09:48;;;;;;;16.23;10.13;;;9.90;99.90;;;;;;5005493;28;20084;-81
2022/04/21 03:12:14;;;;;;;15.32;9.98;;;8.40;99.90;;;;;;5005807;28;20358;-81
2022/04/21 03:14:41;;;;;;;17.90;10.35;;;8.30;99.90;;;;;;4986983;28;20080;-81
2022/04/21 03:17:10;;;;;;;11.05;9.05;;;8.30;99.90;;;;;;5006921;28;20045;-81
2022/04/21 03:19:37;;;;;;;11.93;8.63;;;8.30;99.90;;;;;;5006815;28;20084;-81
2022/04/21 03:24:47;;;;;;;15.93;9.50;;;8.20;99.90;;;;;;5005294;28;20521;-80
2022/04/21 03:27:13;;;;;;;10.32;8.45;;;8.10;99.90;;;;;;5004728;28;20041;-80
2022/04/21 03:29:41;;;;;;;13.23;9.00;;;8.50;99.90;;;;;;5006370;28;20061;-81
2022/04/21 03:32:09;;;;;;;13.85;8.70;;;8.10;99.90;;;;;;5004569;28;20052;-80
2022/04/21 03:34:39;;;;;;;14.38;9.18;;;8.10;99.90;;;;;;5005733;28;20470;-80
2022/04/21 03:37:05;;;;;;;11.38;8.25;;;8.10;99.90;;;;;;5004329;28;20125;-81
2022/04/21 03:39:31;;;;;;;12.32;8.10;;;9.80;99.90;;;;;;4981624;28;20125;-81
2022/04/21 03:41:56;;;;;;;13.70;8.98;;;8.40;99.90;;;;;;5003423;28;20049;-80
2022/04/21 03:44:22;;;;;;;11.45;9.15;;;8.10;99.90;;;;;;4988421;28;20096;-81
2022/04/21 03:46:49;;;;;;;11.38;9.43;;;8.90;99.90;;;;;;5007795;28;20128;-82
2022/04/21 03:49:14;;;;;;;10.95;8.63;;;8.00;99.90;;;;;;5003980;28;20124;-80
2022/04/21 03:51:40;;;;;;;9.60;8.15;;;7.90;99.90;;;;;;5007094;28;20116;-80
2022/04/21 03:54:06;;;;;;;11.52;8.48;;;8.40;99.90;;;;;;5003660;28;20111;-80
2022/04/21 03:56:35;;;;;;;12.43;9.23;;;7.90;99.90;;;;;;5000617;28;20173;-80
2022/04/21 03:59:00;;;;;;;12.73;8.45;;;7.80;99.90;;;;;;5007202;28;20141;-81
2022/04/21 04:01:26;;;;;;;11.13;9.00;;;9.90;99.90;;;;;;5003537;28;20038;-80
2022/04/21 04:03:52;;;;;;;10.45;8.15;;;7.40;99.90;;;;;;5005006;28;20038;-80
2022/04/21 04:11:46;;;;;;;12.35;8.00;;;7.90;99.90;;;;;;4996693;28;20042;-80
2022/04/21 04:14:11;;;;;;;17.05;8.48;;;7.80;99.90;;;;;;5003885;28;20049;-80
2022/04/21 04:16:37;;;;;;;13.15;8.88;;;7.80;99.90;;;;;;5002241;28;20037;-80
2022/04/21 04:19:08;;;;;;;10.23;7.47;;;8.60;99.90;;;;;;4998201;28;20502;-80
2022/04/21 04:21:37;;;;;;;11.05;7.57;;;7.80;99.90;;;;;;5002843;28;20065;-80
2022/04/21 04:24:04;;;;;;;9.88;6.78;;;7.80;99.90;;;;;;5006770;28;20050;-80
2022/04/21 04:26:30;;;;;;;11.02;8.02;;;7.80;99.90;;;;;;5005853;28;20491;-80
2022/04/21 04:28:56;;;;;;;9.88;7.38;;;7.50;99.90;;;;;;4988236;28;20045;-80
2022/04/21 04:31:22;;;;;;;10.23;7.38;;;7.70;99.90;;;;;;4993279;28;20536;-80
2022/04/21 04:33:47;;;;;;;7.80;6.97;;;7.90;99.90;;;;;;5001587;28;20096;-80
2022/04/21 04:36:16;;;;;;;11.10;6.65;;;7.70;99.90;;;;;;5002896;28;20085;-80
2022/04/21 04:38:45;;;;;;;10.15;7.60;;;7.70;99.90;;;;;;5003147;28;20033;-79
2022/04/21 04:43:56;;;;;;;7.90;6.88;;;7.70;99.90;;;;;;4998388;28;20065;-78
2022/04/21 04:46:40;;;;;;;9.27;6.97;;;7.60;99.90;;;;;;4980666;28;20558;-79
2022/04/21 04:49:08;;;;;;;9.40;6.07;;;7.60;99.90;;;;;;4995930;28;20042;-79
2022/04/21 04:51:37;;;;;;;10.95;7.45;;;7.60;99.90;;;;;;4997113;28;20042;-79
2022/04/21 04:54:05;;;;;;;9.13;6.65;;;7.60;99.90;;;;;;5005185;28;20599;-79
2022/04/21 04:56:30;;;;;;;9.40;7.20;;;7.60;99.90;;;;;;4995301;28;20041;-79
2022/04/21 04:58:56;;;;;;;9.57;7.20;;;7.80;99.90;;;;;;4997135;28;20035;-77
2022/04/21 05:01:26;;;;;;;9.18;7.43;;;7.50;99.90;;;;;;4639095;28;10000534;-77
2022/04/21 05:04:03;;;;;;;10.25;6.68;;;8.10;99.90;;;;;;4999059;28;20478;-78
2022/04/21 05:06:32;;;;;;;7.05;6.15;;;7.40;99.90;;;;;;4996900;28;20051;-78
2022/04/21 05:08:58;;;;;;;9.00;6.85;;;7.50;99.90;;;;;;4975082;28;20053;-80
2022/04/21 05:11:25;;;;;;;8.68;6.40;;;7.50;99.90;;;;;;4984222;28;20038;-78
2022/04/21 05:13:52;;;;;;;7.63;6.57;;;7.50;99.90;;;;;;4964736;28;20046;-77
2022/04/21 05:16:17;;;;;;;8.75;7.43;;;7.50;99.90;;;;;;5004441;28;20050;-78
2022/04/21 05:18:43;;;;;;;7.13;6.32;;;7.50;99.90;;;;;;4998356;28;20490;-76
2022/04/21 05:21:09;;;;;;;8.57;6.10;;;7.50;99.90;;;;;;5002251;28;20041;-76
2022/04/21 05:23:36;;;;;;;7.53;6.25;;;7.50;99.90;;;;;;4995352;28;20037;-77
2022/04/21 05:26:02;;;;;;;8.57;6.30;;;7.50;99.90;;;;;;4987148;28;20355;-77
2022/04/21 05:28:28;;;;;;;7.63;6.25;;;7.50;99.90;;;;;;4982803;28;20054;-78
2022/04/21 05:30:58;;;;;;;9.63;6.20;;;7.60;99.90;;;;;;5003206;28;20042;-79
2022/04/21 05:33:26;;;;;;;10.45;6.90;;;7.60;99.90;;;;;;5003053;28;20100;-78
2022/04/21 05:35:52;;;;;;;7.13;6.43;;;7.70;99.90;;;;;;4985713;28;20053;-77
2022/04/21 05:38:20;;;;;;;8.93;6.70;;;7.70;99.90;;;;;;5001002;28;20100;-79
2022/04/21 05:40:46;;;;;;;9.23;7.20;;;7.70;99.90;;;;;;4983752;28;20043;-79
2022/04/21 05:43:14;;;;;;;8.98;6.57;;;7.80;99.90;;;;;;5003998;28;20169;-79
2022/04/21 05:45:40;;;;;;;9.10;6.72;;;7.80;99.90;;;;;;4987358;28;20057;-78
2022/04/21 05:48:06;;;;;;;7.25;6.55;;;7.80;99.90;;;;;;4986694;28;20048;-78
2022/04/21 05:50:32;;;;;;;9.40;6.70;;;7.80;99.90;;;;;;5004876;28;20053;-77
2022/04/21 05:53:02;;;;;;;12.82;7.63;;;7.80;99.90;;;;;;5003387;28;20050;-77
2022/04/21 05:55:28;;;;;;;46.05;31.25;;;7.90;99.90;;;;;;5003356;28;20120;-77
2022/04/21 05:57:55;;;;;;;24.63;15.43;;;7.90;99.90;;;;;;5004590;28;20073;-78
2022/04/21 06:00:21;;;;;;;9.02;7.50;;;8.00;99.90;;;;;;5006732;28;20536;-84
2022/04/21 06:02:46;;;;;;;10.90;7.13;;;8.10;99.90;;;;;;4988906;28;20050;-76
2022/04/21 06:05:12;;;;;;;9.60;7.10;;;8.10;99.90;;;;;;5007455;28;20490;-77
2022/04/21 06:07:39;;;;;;;12.20;6.95;;;8.10;99.90;;;;;;4981599;28;20050;-83
2022/04/21 06:10:05;;;;;;;11.30;7.40;;;8.10;99.90;;;;;;4986421;28;20048;-77
2022/04/21 06:12:30;;;;;;;7.72;6.95;;;8.20;99.90;;;;;;5007232;28;20045;-78
2022/04/21 06:14:56;;;;;;;9.07;6.55;;;8.20;99.90;;;;;;5007705;28;20045;-78
2022/04/21 06:17:21;;;;;;;10.63;7.43;;;8.20;99.90;;;;;;4984730;28;20144;-78
2022/04/21 06:19:47;;;;;;;7.53;6.25;;;8.20;99.90;;;;;;5000874;28;20045;-79
2022/04/21 06:22:13;;;;;;;8.77;7.00;;;10.00;99.90;;;;;;5004826;28;20041;-78
2022/04/21 06:24:39;;;;;;;22.73;14.00;;;8.20;99.90;;;;;;4999532;28;20038;-80
2022/04/21 06:27:05;;;;;;;19.98;14.75;;;8.30;99.90;;;;;;5001950;28;20042;-79
2022/04/21 06:29:31;;;;;;;9.65;7.32;;;8.30;99.90;;;;;;4998718;28;20042;-80
2022/04/21 06:31:56;;;;;;;10.48;6.53;;;9.40;99.90;;;;;;5005574;28;20478;-80
2022/04/21 06:34:25;;;;;;;7.03;5.97;;;8.50;99.90;;;;;;5002015;28;20486;-81
2022/04/21 06:36:50;;;;;;;8.07;6.25;;;8.60;99.90;;;;;;5007067;28;20486;-78
2022/04/21 06:39:16;;;;;;;9.55;6.25;;;8.60;99.90;;;;;;4983840;28;20045;-78
2022/04/21 06:41:42;;;;;;;10.90;5.88;;;10.50;99.90;;;;;;4968277;28;20077;-78
2022/04/21 06:49:37;;;;;;;7.78;4.95;;;8.90;99.90;;;;;;5002539;28;20041;-78
2022/04/21 06:52:03;;;;;;;6.20;4.78;;;8.90;99.90;;;;;;5001600;28;20043;-78
2022/04/21 06:54:29;;;;;;;5.70;4.88;;;9.10;99.90;;;;;;5006365;28;20482;-78
2022/04/21 06:56:54;;;;;;;8.73;4.72;;;8.90;99.90;;;;;;5003461;28;20041;-78
2022/04/21 06:59:20;;;;;;;5.80;4.63;;;9.20;99.90;;;;;;5001775;28;20189;-77
2022/04/21 07:01:48;;;;;;;5.00;4.47;;;9.30;99.90;;;;;;5003554;28;20148;-77
2022/04/21 07:04:14;;;;;;;7.07;4.35;;;9.40;99.90;;;;;;4991689;28;20413;-77
2022/04/21 07:06:40;;;;;;;4.65;3.88;;;9.40;99.90;;;;;;5005925;28;20076;-79
2022/04/21 07:09:06;;;;;;;4.13;3.58;;;9.50;99.90;;;;;;5007843;28;20148;-78
2022/04/21 07:11:32;;;;;;;4.57;3.70;;;9.00;99.90;;;;;;5005380;28;20034;-78
2022/04/21 07:13:57;;;;;;;3.40;2.67;;;9.60;99.90;;;;;;5005769;28;20045;-78
2022/04/21 07:16:23;;;;;;;5.85;3.38;;;9.80;99.90;;;;;;5001183;28;20398;-78
2022/04/21 07:18:49;;;;;;;3.58;2.90;;;9.90;99.90;;;;;;4992539;28;20034;-78
2022/04/21 07:21:15;;;;;;;3.70;2.88;;;9.90;99.90;;;;;;5002608;28;20073;-81
2022/04/21 07:23:41;;;;;;;3.20;2.90;;;10.00;99.90;;;;;;4999827;28;20101;-81
2022/04/21 07:26:07;;;;;;;2.95;2.72;;;10.10;99.90;;;;;;4996404;28;20085;-81
2022/04/21 07:28:33;;;;;;;3.67;2.65;;;10.30;99.90;;;;;;4998722;28;20065;-81
2022/04/21 07:30:59;;;;;;;2.88;2.33;;;10.30;99.90;;;;;;4965080;28;20382;-81
2022/04/21 07:33:24;;;;;;;4.40;2.65;;;10.40;99.90;;;;;;5003662;28;20045;-81
2022/04/21 07:35:50;;;;;;;2.22;2.08;;;10.50;99.90;;;;;;5003509;28;20049;-78
2022/04/21 07:38:15;;;;;;;3.65;2.45;;;11.20;99.90;;;;;;5004243;28;20040;-78
2022/04/21 07:40:41;;;;;;;5.25;2.58;;;10.70;99.90;;;;;;5001209;28;20050;-78
2022/04/21 07:43:10;;;;;;;6.82;2.67;;;10.70;99.90;;;;;;5006697;28;20064;-78
2022/04/21 07:45:41;;;;;;;2.60;2.15;;;10.80;99.90;;;;;;4998367;28;20138;-78
2022/04/21 07:48:07;;;;;;;3.58;1.95;;;10.80;99.90;;;;;;4995927;28;20422;-78
2022/04/21 07:50:33;;;;;;;3.45;1.65;;;10.90;99.90;;;;;;4980291;28;20483;-78
2022/04/21 07:53:14;;;;;;;4.90;1.80;;;11.00;99.90;;;;;;5000640;28;20035;-78
2022/04/21 07:55:46;;;;;;;3.17;1.70;;;11.10;99.90;;;;;;4982391;28;20141;-78
2022/04/21 07:58:12;;;;;;;2.08;1.58;;;11.20;99.90;;;;;;4996356;28;20042;-78
2022/04/21 08:00:39;;;;;;;2.25;1.70;;;11.20;99.90;;;;;;4997108;28;20103;-78
2022/04/21 08:03:06;;;;;;;2.22;1.60;;;11.40;99.90;;;;;;4999226;28;20052;-79
2022/04/21 08:05:32;;;;;;;1.85;1.52;;;11.50;99.90;;;;;;4999275;28;20038;-78
2022/04/21 08:07:58;;;;;;;2.20;1.92;;;11.50;99.90;;;;;;4979474;28;20576;-76
2022/04/21 08:10:27;;;;;;;1.90;1.77;;;11.60;99.90;;;;;;4997112;28;20529;-78
2022/04/21 08:12:54;;;;;;;7.85;2.00;;;11.70;99.90;;;;;;5000443;28;20054;-77
2022/04/21 08:15:33;;;;;;;2.97;1.80;;;11.80;99.90;;;;;;4998697;28;20038;-78
2022/04/21 08:18:03;;;;;;;3.10;1.40;;;11.90;99.90;;;;;;4997171;28;20084;-77
2022/04/21 08:20:31;;;;;;;5.13;1.75;;;11.90;99.90;;;;;;4995399;28;20069;-77
2022/04/21 08:22:56;;;;;;;4.07;1.75;;;13.00;99.90;;;;;;4995153;28;20034;-77
2022/04/21 08:33:36;;;;;;;2.97;1.27;;;11.60;99.70;;;;;;5000880;28;20133;-79
2022/04/21 08:36:03;;;;;;;2.15;1.27;;;12.50;99.40;;;;;;4979468;28;20042;-77
2022/04/21 08:38:31;;;;;;;1.27;1.17;;;12.60;99.10;;;;;;4997230;28;20375;-77
2022/04/21 08:40:59;;;;;;;5.07;1.88;;;12.70;98.80;;;;;;4999861;28;20441;-78
2022/04/21 08:43:27;;;;;;;3.88;1.60;;;14.10;99.10;;;;;;4998655;28;20054;-77
2022/04/21 08:45:54;;;;;;;1.98;1.60;;;12.80;99.20;;;;;;4980596;28;20058;-78
2022/04/21 08:48:22;;;;;;;3.65;1.48;;;12.80;99.30;;;;;;4979796;28;20136;-77
2022/04/21 08:50:48;;;;;;;2.70;1.50;;;12.90;98.90;;;;;;4996908;28;20046;-77
2022/04/21 08:53:16;;;;;;;2.10;1.67;;;12.90;98.70;;;;;;4999595;28;20149;-77
2022/04/21 08:55:44;;;;;;;1.50;1.40;;;12.90;98.40;;;;;;4999272;28;20042;-77
2022/04/21 08:58:11;;;;;;;5.63;4.60;;;12.90;98.50;;;;;;4997251;28;20046;-76
2022/04/21 09:00:38;;;;;;;5.95;2.13;;;12.90;98.30;;;;;;4979470;28;20519;-77
2022/04/21 09:03:06;;;;;;;2.50;1.73;;;13.00;98.10;;;;;;4999694;28;20080;-78
2022/04/21 09:05:32;;;;;;;3.45;2.08;;;13.20;98.30;;;;;;5000322;28;20073;-79
2022/04/21 09:07:59;;;;;;;4.30;1.58;;;13.30;97.90;;;;;;4996180;28;20083;-78
2022/04/21 09:10:28;;;;;;;2.35;2.10;;;13.40;97.70;;;;;;4994869;28;20077;-78
2022/04/21 09:12:58;;;;;;;3.75;1.63;;;13.50;97.30;;;;;;4997768;28;20454;-78
2022/04/21 09:15:27;;;;;;;1.90;1.60;;;14.40;97.30;;;;;;4999095;28;20038;-78
2022/04/21 09:18:00;;;;;;;1.77;1.65;;;14.20;97.40;;;;;;4996501;28;20065;-78
2022/04/21 09:20:35;;;;;;;2.97;2.00;;;13.70;97.40;;;;;;4995653;28;20096;-78
2022/04/21 09:23:04;;;;;;;10.90;2.15;;;13.70;97.30;;;;;;4966392;28;20037;-77
2022/04/21 09:25:41;;;;;;;2.55;1.83;;;13.70;97.10;;;;;;4982016;28;20537;-77
2022/04/21 09:28:22;;;;;;;5.30;1.83;;;13.80;97.50;;;;;;4979172;28;20053;-78
2022/04/21 09:30:55;;;;;;;5.07;2.03;;;13.90;97.80;;;;;;4995759;28;20053;-78
2022/04/21 09:33:28;;;;;;;4.07;2.28;;;14.00;98.00;;;;;;4999634;28;20714;-79
2022/04/21 09:36:05;;;;;;;4.40;2.55;;;15.10;97.70;;;;;;5001096;28;20104;-79
2022/04/21 09:38:31;;;;;;;6.70;2.00;;;14.20;97.70;;;;;;4998841;28;20525;-79
2022/04/21 09:41:05;;;;;;;6.15;2.20;;;14.10;97.00;;;;;;4984433;28;20053;-78
2022/04/21 09:43:33;;;;;;;;;;;14.30;96.80;;;;;;5002822;28;20061;-78
2022/04/21 09:46:20;;;;;;;5.07;2.17;;;14.40;96.70;;;;;;4983583;28;19925;-76
2022/04/21 09:48:48;;;;;;;3.55;2.70;;;14.40;96.80;;;;;;4983217;28;20054;-76
2022/04/21 09:51:24;;;;;;;4.00;2.70;;;14.50;96.80;;;;;;5001904;28;20138;-79
2022/04/21 09:53:59;;;;;;;2.60;2.30;;;14.60;96.00;;;;;;5000807;28;20054;-76
2022/04/21 09:56:29;;;;;;;2.20;2.00;;;14.70;96.00;;;;;;5000371;28;20386;-77
2022/04/21 09:58:55;;;;;;;6.43;2.20;;;14.80;96.40;;;;;;5000707;28;20490;-78
2022/04/21 10:01:21;;;;;;;4.10;2.17;;;14.90;95.40;;;;;;4985672;28;20088;-77
2022/04/21 10:03:48;;;;;;;5.97;1.80;;;14.90;95.50;;;;;;4969629;28;20054;-77
2022/04/21 10:06:16;;;;;;;4.07;2.42;;;14.80;95.50;;;;;;4981789;28;20498;-78
2022/04/21 10:08:43;;;;;;;2.05;1.80;;;15.00;95.20;;;;;;5000498;28;20038;-77
2022/04/21 10:11:10;;;;;;;3.20;1.85;;;15.10;95.10;;;;;;4985227;28;20052;-77
2022/04/21 10:13:36;;;;;;;2.92;2.20;;;15.60;95.40;;;;;;4985161;28;20379;-78
2022/04/21 10:16:02;;;;;;;4.18;2.10;;;15.20;94.90;;;;;;5001214;28;20394;-77
2022/04/21 10:18:28;;;;;;;3.05;2.47;;;15.30;94.60;;;;;;4998678;28;20078;-77
2022/04/21 10:20:57;;;;;;;4.25;2.67;;;15.30;94.60;;;;;;4982153;28;20472;-77
2022/04/21 10:23:26;;;;;;;2.17;2.05;;;16.40;95.00;;;;;;5003129;28;20040;-77
2022/04/21 10:26:00;;;;;;;3.05;2.15;;;16.40;94.80;;;;;;4983359;28;20050;-77
2022/04/21 10:28:37;;;;;;;2.13;1.77;;;16.20;94.30;;;;;;5001409;28;20080;-77
2022/04/21 10:31:32;;;;;;;3.63;2.25;;;15.70;94.00;;;;;;5000723;28;20129;-77
2022/04/21 10:34:07;;;;;;;5.85;2.45;;;15.80;93.60;;;;;;4999003;28;20054;-77
2022/04/21 10:36:37;;;;;;;2.10;1.83;;;15.90;93.10;;;;;;4985306;28;20128;-78
2022/04/21 10:39:23;;;;;;;5.82;1.92;;;16.00;92.40;;;;;;5000819;28;20513;-77
2022/04/21 10:42:05;;;;;;;2.95;2.28;;;16.00;91.60;;;;;;4997144;28;20064;-78
2022/04/21 10:44:43;;;;;;;2.78;2.42;;;16.00;91.90;;;;;;4981180;28;20133;-77
2022/04/21 10:47:30;;;;;;;3.50;1.90;;;16.10;91.60;;;;;;5000706;28;20050;-78
2022/04/21 10:49:57;;;;;;;3.63;1.77;;;16.30;92.40;;;;;;4983266;28;20037;-77
2022/04/21 10:57:55;;;;;;;3.85;2.00;;;16.70;90.30;;;;;;5002430;28;20053;-78
2022/04/21 11:00:29;;;;;;;1.80;1.40;;;17.60;90.60;;;;;;4981229;28;20061;-78
2022/04/21 11:03:24;;;;;;;2.67;1.80;;;16.70;89.60;;;;;;4996981;28;20046;-77
2022/04/21 11:06:04;;;;;;;2.63;2.00;;;16.80;88.70;;;;;;5002220;28;20354;-77
2022/04/21 11:08:31;;;;;;;2.17;1.63;;;16.90;87.80;;;;;;4981397;28;20039;-77
2022/04/21 11:10:56;;;;;;;4.97;1.77;;;17.30;88.90;;;;;;4998362;28;20050;-77
2022/04/21 11:13:42;;;;;;;5.05;1.85;;;17.20;88.60;;;;;;4984294;28;20099;-78
2022/04/21 11:16:09;;;;;;;4.15;1.88;;;17.20;87.50;;;;;;4982894;28;20097;-77
2022/04/21 11:18:34;;;;;;;4.78;1.58;;;17.40;87.40;;;;;;4997535;28;20494;-77
2022/04/21 11:21:19;;;;;;;1.40;1.30;;;18.30;87.60;;;;;;4981925;28;20085;-77
2022/04/21 11:23:44;;;;;;;;;;;17.60;85.40;;;;;;4984185;28;20041;-78
2022/04/21 11:26:11;;;;;;;7.85;4.53;;;17.80;86.30;;;;;;4998893;28;20261;-79
2022/04/21 11:28:45;;;;;;;3.50;3.10;;;19.10;85.20;;;;;;4965444;28;20479;-77
2022/04/21 11:31:11;;;;;;;2.20;1.52;;;18.10;83.00;;;;;;4981605;28;20093;-78
2022/04/21 11:33:44;;;;;;;1.73;1.50;;;18.10;82.30;;;;;;4984586;28;20502;-78
2022/04/21 11:36:12;;;;;;;3.80;1.40;;;18.20;82.20;;;;;;4998625;28;20052;-76
2022/04/21 11:38:42;;;;;;;1.80;1.48;;;18.40;82.30;;;;;;4980532;28;20521;-78
2022/04/21 11:41:10;;;;;;;2.40;1.40;;;18.40;79.90;;;;;;4998545;28;20081;-78
2022/04/21 11:43:37;;;;;;;2.67;2.08;;;18.30;79.10;;;;;;5000322;28;20128;-78
2022/04/21 11:46:09;;;;;;;3.08;1.20;;;18.40;78.10;;;;;;4999819;28;20038;-77
2022/04/21 11:48:37;;;;;;;1.88;1.40;;;19.20;77.90;;;;;;4997186;28;20509;-77
2022/04/21 11:51:03;;;;;;;3.53;1.48;;;18.60;77.60;;;;;;4996898;28;20061;-77
2022/04/21 11:53:36;;;;;;;6.50;1.30;;;18.60;76.50;;;;;;4966910;28;20460;-78
2022/04/21 11:56:03;;;;;;;2.95;1.70;;;18.80;76.60;;;;;;4983163;28;20042;-78
2022/04/21 11:58:31;;;;;;;4.13;1.60;;;18.80;76.10;;;;;;4996134;28;20069;-79
2022/04/21 12:06:32;;;;;;;2.95;1.80;;;19.10;76.10;;;;;;4992112;28;20057;-80
2022/04/21 12:08:59;;;;;;;3.70;2.05;;;19.00;76.20;;;;;;5000970;28;20113;-78
2022/04/21 12:11:26;;;;;;;3.55;2.20;;;19.40;76.20;;;;;;4980183;28;20495;-77
2022/04/21 12:13:52;;;;;;;3.80;2.20;;;19.00;75.80;;;;;;4979225;28;20084;-77
2022/04/21 12:16:37;;;;;;;1.88;1.73;;;19.20;75.60;;;;;;4982154;28;20073;-77
2022/04/21 12:19:26;;;;;;;2.47;1.55;;;19.20;74.70;;;;;;5000972;28;20054;-78
2022/04/21 12:22:00;;;;;;;4.03;1.88;;;19.30;74.70;;;;;;4980356;28;20049;-77
2022/04/21 12:24:32;;;;;;;2.03;1.52;;;19.30;73.10;;;;;;4999602;28;20037;-79
2022/04/21 12:26:58;;;;;;;3.42;1.50;;;19.40;73.00;;;;;;4998841;28;20068;-78
2022/04/21 12:29:24;;;;;;;4.72;1.60;;;20.70;73.10;;;;;;4979978;28;20395;-77
2022/04/21 12:31:55;;;;;;;5.93;1.55;;;20.70;72.80;;;;;;4977095;28;20052;-77
2022/04/21 12:34:31;;;;;;;3.10;2.08;;;19.40;72.40;;;;;;4998090;28;20053;-79
2022/04/21 12:37:01;;;;;;;2.78;1.65;;;19.50;72.80;;;;;;4983305;28;20034;-79
2022/04/21 12:39:29;;;;;;;1.58;1.48;;;19.50;72.00;;;;;;4995141;28;20456;-78
2022/04/21 12:41:56;;;;;;;1.95;1.30;;;19.20;70.90;;;;;;4996947;28;20054;-78
2022/04/21 12:44:24;;;;;;;5.03;1.80;;;19.30;70.80;;;;;;4998270;28;20258;-78
2022/04/21 12:47:17;;;;;;;3.30;2.95;;;19.20;71.30;;;;;;4998332;28;20108;-77
2022/04/21 12:50:07;;;;;;;3.15;2.70;;;19.40;71.40;;;;;;4996981;28;20049;-77
2022/04/21 12:52:39;;;;;;;4.30;2.72;;;19.40;72.00;;;;;;4983110;28;20192;-78
2022/04/21 12:55:10;;;;;;;2.17;1.85;;;19.70;71.60;;;;;;4998689;28;20061;-79
2022/04/21 12:57:37;;;;;;;3.33;2.00;;;19.80;72.20;;;;;;4997497;28;20043;-78
2022/04/21 13:00:10;;;;;;;2.88;2.20;;;20.70;73.80;;;;;;4978576;28;20298;-78
2022/04/21 13:02:37;;;;;;;3.22;1.77;;;20.00;71.30;;;;;;4997327;28;20085;-78
2022/04/21 13:05:04;;;;;;;6.78;2.00;;;20.00;70.80;;;;;;4995925;28;20482;-78
2022/04/21 13:07:30;;;;;;;3.45;2.22;;;20.10;71.40;;;;;;4998995;28;20042;-78
2022/04/21 13:09:55;;;;;;;2.63;2.00;;;20.80;72.00;;;;;;5002529;28;20042;-77
2022/04/21 13:12:21;;;;;;;3.45;2.22;;;20.10;72.20;;;;;;4985361;28;20042;-78
2022/04/21 13:14:47;;;;;;;6.20;1.88;;;20.60;70.80;;;;;;4999270;28;20038;-76
2022/04/21 13:17:12;;;;;;;3.13;2.00;;;20.10;70.30;;;;;;5000086;28;20038;-79
2022/04/21 13:19:38;;;;;;;2.58;1.73;;;20.00;69.30;;;;;;4986604;28;20125;-77
2022/04/21 13:22:04;;;;;;;2.13;1.90;;;21.00;70.40;;;;;;5002496;28;20050;-77
2022/04/21 13:24:31;;;;;;;7.00;2.47;;;19.80;70.20;;;;;;4999907;28;20517;-77
2022/04/21 13:26:59;;;;;;;6.72;2.05;;;20.60;70.80;;;;;;4999643;28;20046;-76
2022/04/21 13:29:27;;;;;;;2.78;1.60;;;19.90;70.60;;;;;;5000451;28;20525;-77
2022/04/21 13:34:42;;;;;;;3.55;2.40;;;19.80;70.40;;;;;;4951765;28;20077;-78
2022/04/21 13:37:09;;;;;;;5.63;1.80;;;19.80;69.40;;;;;;5002174;28;20445;-76
2022/04/21 13:39:36;;;;;;;3.05;2.10;;;20.80;70.00;;;;;;4999679;28;20038;-77
2022/04/21 13:42:03;;;;;;;3.95;2.10;;;19.50;69.10;;;;;;4998360;28;20051;-78
2022/04/21 13:44:29;;;;;;;10.07;2.15;;;19.50;68.10;;;;;;4984868;28;20054;-78